Paso Robles Municipal Airport
KPRB : now visible

Airfield :











YOU CAN JOIN US ON...

 
LOGIN :

Register | Disclaimer

   EN    FR    IT 

 









Legend :    VFR   Marginal VFR   IFR   Intensive IFR   Very Intensive IFR
Visi :
Ceiling :
>= 8 km
>= 3000ft
5 to 8 km
1000 to 3000 ft
1500m to 5 km
500 to 1000 ft
800 to 1500m
200 to 500 ft
< 800m
< 200 ft
Symbols :   Thunderstorms  Fog  Heavy snow  Heavy precipitations  Wind > 20 kt






- Airport Elevation : 840 ft


KPRB - Paso Robles Municipal

CURRENT METAR :
  • 150953Z AUTO 00000KT 10SM CLR 15/09 A2991 RMK AO2 SLP119 T01500094

EXPIRED METARs :
  • 150853Z AUTO 29003KT 10SM CLR 16/09 A2991 RMK AO2 SLP120 T01610089 50001
  • 150753Z AUTO 30004KT 10SM CLR 17/09 A2992 RMK AO2 SLP122 T01720094 403890128

TAF KPRB
Valid from the 15 at 06:00 until the 16 at 06:00 UTC


150530Z 1506/1606 32005KT P6SM SKC
FM151300 VRB03KT P6SM SKC
FM151700 24008KT P6SM SKC
FM160000 30010KT P6SM SKC
KZOA FIR / North America



MET'MAP, your aeronautical weather chart ! - Copyright ORBIFLY December 2007 - Disclaimer

ORBIFLY MET'MAP TEAM :

Programming & Development : Alexandra Zaïnal
Original concept : Baudouin d'Aumeries
Technical & hardware support : Manuel Goepfert
Assistance : Marc-Olivier Méhu




SOURCES & CREDITS :

   NOAA       Earth
Advisory